Time;durP1;ratioP1;P1;durP2;ratioP2;P2;SDS_P1;SDS_P2;PMS_P1;PMS_P2;Temp;Humidity;BMP_temperature;BMP_pressure;BME280_temperature;BME280_humidity;BME280_pressure;Samples;Min_cycle;Max_cycle;Signal;HPM_P1;HPM_P2
2023/01/24 00:00:29;;;;;;;;;;;3.10;99.90;;;;;;5012810;28;20362;-69
2023/01/24 00:02:55;;;;;;;;;;;3.10;99.90;;;;;;5011411;28;20000;-67
2023/01/24 00:05:20;;;;;;;;;;;3.10;99.90;;;;;;5012933;28;19909;-68
2023/01/24 00:07:46;;;;;;;;;;;3.10;99.90;;;;;;5010448;28;20292;-68
2023/01/24 00:10:11;;;;;;;;;;;3.10;99.90;;;;;;5012521;28;19916;-68
2023/01/24 00:12:37;;;;;;;;;;;3.10;99.90;;;;;;5011195;28;19916;-68
2023/01/24 00:15:03;;;;;;;;;;;3.10;99.90;;;;;;5010840;28;19916;-69
2023/01/24 00:17:29;;;;;;;;;;;3.10;99.90;;;;;;5013079;28;19916;-68
2023/01/24 00:19:54;;;;;;;;;;;3.10;99.90;;;;;;5011059;28;19917;-68
2023/01/24 00:22:20;;;;;;;;;;;3.10;99.90;;;;;;5007565;28;19909;-70
2023/01/24 00:24:46;;;;;;;;;;;3.10;99.90;;;;;;5008715;28;19910;-68
2023/01/24 00:27:12;;;;;;;;;;;3.10;99.90;;;;;;5011617;28;19928;-68
2023/01/24 00:29:37;;;;;;;;;;;3.10;99.90;;;;;;5005703;28;20297;-69
2023/01/24 00:32:03;;;;;;;;;;;3.10;99.90;;;;;;5004399;28;19917;-69
2023/01/24 00:34:28;;;;;;;;;;;3.10;99.90;;;;;;5007216;28;20353;-70
2023/01/24 00:36:54;;;;;;;;;;;3.10;99.90;;;;;;5011272;28;19909;-68
2023/01/24 00:39:20;;;;;;;;;;;3.10;99.90;;;;;;5012757;28;19911;-68
2023/01/24 00:41:45;;;;;;;;;;;3.10;99.90;;;;;;5010361;28;19914;-68
2023/01/24 00:44:11;;;;;;;;;;;3.10;99.90;;;;;;5013223;28;19917;-69
2023/01/24 00:46:37;;;;;;;;;;;3.10;99.90;;;;;;5012454;28;19913;-67
2023/01/24 00:49:02;;;;;;;;;;;3.10;99.90;;;;;;5010420;28;19924;-68
2023/01/24 00:51:28;;;;;;;;;;;3.10;99.90;;;;;;5011900;28;19909;-67
2023/01/24 00:53:53;;;;;;;;;;;3.10;99.90;;;;;;5004647;28;19909;-68
2023/01/24 00:56:19;;;;;;;;;;;3.10;99.90;;;;;;5006545;28;19909;-67
2023/01/24 00:58:44;;;;;;;;;;;3.10;99.90;;;;;;5010407;28;19910;-68
2023/01/24 01:01:10;;;;;;;;;;;3.10;99.90;;;;;;5010002;28;19910;-67
2023/01/24 01:03:36;;;;;;;;;;;3.10;99.90;;;;;;5011261;28;19917;-68
2023/01/24 01:06:06;;;;;;;;;;;3.10;99.90;;;;;;5010029;28;19909;-68
2023/01/24 01:08:31;;;;;;;;;;;3.10;99.90;;;;;;5006541;28;19940;-68
2023/01/24 01:10:57;;;;;;;;;;;3.10;99.90;;;;;;5010536;28;20877;-68
2023/01/24 01:13:23;;;;;;;;;;;3.10;99.90;;;;;;5010144;28;19956;-68
2023/01/24 01:15:49;;;;;;;;;;;3.10;99.90;;;;;;5010320;28;19968;-67
2023/01/24 01:18:14;;;;;;;;;;;3.10;99.90;;;;;;5011893;28;19920;-67
2023/01/24 01:20:40;;;;;;;;;;;3.10;99.90;;;;;;5009893;28;19916;-68
2023/01/24 01:23:05;;;;;;;;;;;3.10;99.90;;;;;;5005940;28;20305;-67
2023/01/24 01:25:31;;;;;;;;;;;3.10;99.90;;;;;;5008247;28;19937;-68
2023/01/24 01:27:57;;;;;;;;;;;3.10;99.90;;;;;;5008616;28;19925;-68
2023/01/24 01:30:22;;;;;;;;;;;3.10;99.90;;;;;;5011488;28;19909;-68
2023/01/24 01:32:48;;;;;;;;;;;3.10;99.90;;;;;;5009446;28;20281;-67
2023/01/24 01:35:13;;;;;;;;;;;3.10;99.90;;;;;;5001646;28;19916;-67
2023/01/24 01:37:39;;;;;;;;;;;3.10;99.90;;;;;;5001523;28;19964;-68
2023/01/24 01:40:05;;;;;;;;;;;3.20;99.90;;;;;;5011366;28;19909;-69
2023/01/24 01:42:39;;;;;;;;;;;3.20;99.90;;;;;;5012326;28;19921;-69
2023/01/24 01:45:23;;;;;;;;;;;3.20;99.90;;;;;;5011218;28;20055;-69
2023/01/24 01:47:48;;;;;;;;;;;3.20;99.90;;;;;;5003360;28;19917;-68
2023/01/24 01:50:29;;;;;;;;;;;3.20;99.90;;;;;;5005604;28;19915;-68
2023/01/24 01:52:56;;;;;;;;;;;3.20;99.90;;;;;;5005416;28;19910;-68
2023/01/24 01:55:23;;;;;;;;;;;3.20;99.90;;;;;;5009073;28;19996;-69
2023/01/24 01:57:51;;;;;;;;;;;3.20;99.90;;;;;;5006653;28;20280;-68
2023/01/24 02:00:18;;;;;;;;;;;3.30;99.90;;;;;;5008412;28;19968;-69
2023/01/24 02:02:53;;;;;;;;;;;3.30;99.90;;;;;;5006558;28;19916;-69
2023/01/24 02:05:20;;;;;;;;;;;3.30;99.90;;;;;;5003804;28;19916;-69
2023/01/24 02:07:55;;;;;;;;;;;3.20;99.90;;;;;;5008946;28;19917;-69
2023/01/24 02:10:22;;;;;;;;;;;3.30;99.90;;;;;;5010912;28;19909;-68
2023/01/24 02:12:48;;;;;;;;;;;3.30;99.90;;;;;;5008220;28;19999;-68
2023/01/24 02:18:00;;;;;;;;;;;3.30;99.90;;;;;;5009228;28;19915;-69
2023/01/24 02:20:26;;;;;;;;;;;3.30;99.90;;;;;;5010996;28;19909;-68
2023/01/24 02:23:08;;;;;;;;;;;3.30;99.90;;;;;;5008338;28;19910;-68
2023/01/24 02:25:46;;;;;;;;;;;3.40;99.90;;;;;;5008700;28;19917;-68
2023/01/24 02:28:11;;;;;;;;;;;3.40;99.90;;;;;;5005930;28;19917;-68
2023/01/24 02:30:38;;;;;;;;;;;3.40;99.90;;;;;;5010781;28;19964;-68
2023/01/24 02:33:11;;;;;;;;;;;3.40;99.90;;;;;;5008789;28;19963;-69
2023/01/24 02:35:36;;;;;;;;;;;3.40;99.90;;;;;;5006244;28;19909;-69
2023/01/24 02:38:04;;;;;;;;;;;3.40;99.90;;;;;;5008524;28;19936;-69
2023/01/24 02:40:30;;;;;;;;;;;3.40;99.90;;;;;;5010181;28;19916;-68
2023/01/24 02:42:56;;;;;;;;;;;3.50;99.90;;;;;;5008270;28;20328;-68
2023/01/24 02:45:26;;;;;;;;;;;3.40;99.90;;;;;;5004939;28;19913;-68
2023/01/24 02:47:53;;;;;;;;;;;3.50;99.90;;;;;;5002947;28;19963;-70
2023/01/24 02:50:20;;;;;;;;;;;3.50;99.90;;;;;;5009985;28;20365;-68
2023/01/24 02:55:31;;;;;;;;;;;3.50;99.90;;;;;;5010568;28;19972;-68
2023/01/24 02:58:05;;;;;;;;;;;3.50;99.90;;;;;;5008093;28;19909;-69
2023/01/24 03:00:38;;;;;;;;;;;3.50;99.90;;;;;;5010343;28;19909;-68
2023/01/24 03:03:04;;;;;;;;;;;3.50;99.90;;;;;;5009934;28;19913;-68
2023/01/24 03:05:39;;;;;;;;;;;3.50;99.90;;;;;;5010221;28;19909;-68
2023/01/24 03:08:07;;;;;;;;;;;3.50;99.90;;;;;;5007487;28;19922;-67
2023/01/24 03:10:34;;;;;;;;;;;3.50;99.90;;;;;;5010024;28;19914;-69
2023/01/24 03:34:53;;;;;;;;;;;3.50;99.90;;;;;;5008258;28;19932;-70
2023/01/24 03:40:06;;;;;;;;;;;3.50;99.90;;;;;;5007090;28;20369;-68
2023/01/24 03:42:33;;;;;;;;;;;3.50;99.90;;;;;;5006923;28;20618;-68
2023/01/24 03:44:58;;;;;;;;;;;3.50;99.90;;;;;;5006043;28;19968;-69
2023/01/24 03:47:24;;;;;;;;;;;3.50;99.90;;;;;;5010137;28;19945;-69
2023/01/24 03:52:33;;;;;;;;;;;3.50;99.90;;;;;;5007341;28;19940;-68
2023/01/24 03:55:00;;;;;;;;;;;3.50;99.90;;;;;;5009301;28;19910;-69
2023/01/24 03:57:26;;;;;;;;;;;3.50;99.90;;;;;;5010535;28;19910;-68
2023/01/24 03:59:52;;;;;;;;;;;3.50;99.90;;;;;;5008435;28;19979;-68
2023/01/24 04:02:17;;;;;;;;;;;3.50;99.90;;;;;;5011186;28;20355;-69
2023/01/24 04:07:27;;;;;;;;;;;3.50;99.90;;;;;;5011512;28;20395;-69
2023/01/24 04:09:53;;;;;;;;;;;3.50;99.90;;;;;;5004985;28;19941;-68
2023/01/24 04:12:19;;;;;;;;;;;3.60;99.90;;;;;;5009817;28;19956;-67
2023/01/24 04:14:44;;;;;;;;;;;3.50;99.90;;;;;;5009125;28;19931;-68
2023/01/24 04:17:10;;;;;;;;;;;3.50;99.90;;;;;;5010421;28;20001;-69
2023/01/24 04:19:35;;;;;;;;;;;3.60;99.90;;;;;;5010011;28;19910;-68
2023/01/24 04:22:01;;;;;;;;;;;3.60;99.90;;;;;;5008957;28;20400;-68
2023/01/24 04:24:27;;;;;;;;;;;3.60;99.90;;;;;;5010625;28;19913;-68
2023/01/24 04:26:52;;;;;;;;;;;3.60;99.90;;;;;;5008189;28;20289;-67
2023/01/24 04:29:18;;;;;;;;;;;3.60;99.90;;;;;;5008404;28;19921;-67
2023/01/24 04:31:43;;;;;;;;;;;3.60;99.90;;;;;;5008599;28;19909;-67
2023/01/24 04:34:09;;;;;;;;;;;3.60;99.90;;;;;;5009115;28;19909;-68
2023/01/24 04:36:34;;;;;;;;;;;3.70;99.90;;;;;;5009813;28;19970;-68
2023/01/24 04:39:00;;;;;;;;;;;3.70;99.90;;;;;;5005856;28;20001;-69
2023/01/24 04:41:26;;;;;;;;;;;3.70;99.90;;;;;;5009708;28;19909;-67
2023/01/24 04:43:51;;;;;;;;;;;3.70;99.90;;;;;;5007121;28;19988;-67
2023/01/24 04:46:17;;;;;;;;;;;3.70;99.90;;;;;;5008381;28;19917;-68
2023/01/24 04:48:43;;;;;;;;;;;3.70;99.90;;;;;;5008610;28;20023;-68
2023/01/24 04:51:09;;;;;;;;;;;3.70;99.90;;;;;;5009340;28;20389;-68
2023/01/24 04:53:37;;;;;;;;;;;3.80;99.90;;;;;;5008868;28;19931;-68
2023/01/24 04:56:03;;;;;;;;;;;3.80;99.90;;;;;;5013017;28;20003;-68
2023/01/24 04:58:29;;;;;;;;;;;3.80;99.90;;;;;;5010315;28;19944;-69
2023/01/24 05:00:54;;;;;;;;;;;3.80;99.90;;;;;;5007935;28;20370;-69
2023/01/24 05:03:20;;;;;;;;;;;3.90;99.90;;;;;;5010262;28;19910;-68
2023/01/24 05:05:49;;;;;;;;;;;3.90;99.90;;;;;;5007079;28;20003;-69
2023/01/24 05:08:15;;;;;;;;;;;4.00;99.90;;;;;;5009453;28;19924;-68
2023/01/24 05:10:40;;;;;;;;;;;4.00;99.90;;;;;;5007406;28;19909;-67
2023/01/24 05:13:06;;;;;;;;;;;4.00;99.90;;;;;;5011876;28;20361;-69
2023/01/24 05:15:31;;;;;;;;;;;4.00;99.90;;;;;;5009458;28;19932;-69
2023/01/24 05:17:57;;;;;;;;;;;4.00;99.90;;;;;;5006810;28;20004;-69
2023/01/24 05:20:22;;;;;;;;;;;4.00;99.90;;;;;;5009864;28;19909;-68
2023/01/24 05:22:49;;;;;;;;;;;4.10;99.90;;;;;;5006999;28;20008;-68
2023/01/24 05:25:15;;;;;;;;;;;4.10;99.90;;;;;;5008881;28;20349;-68
2023/01/24 05:27:41;;;;;;;;;;;4.10;99.90;;;;;;5007375;28;19909;-67
2023/01/24 05:30:07;;;;;;;;;;;4.20;99.90;;;;;;5026399;28;20005;-67
2023/01/24 05:32:32;;;;;;;;;;;4.20;99.90;;;;;;5008103;28;20007;-68
2023/01/24 05:34:58;;;;;;;;;;;4.20;99.90;;;;;;5006760;28;20409;-67
2023/01/24 05:37:23;;;;;;;;;;;4.20;99.90;;;;;;5008810;28;20313;-68
2023/01/24 05:39:49;;;;;;;;;;;4.20;99.90;;;;;;5006788;28;19909;-69
2023/01/24 05:42:15;;;;;;;;;;;4.20;99.90;;;;;;5008808;28;19964;-68
2023/01/24 05:44:40;;;;;;;;;;;4.20;99.90;;;;;;5022558;28;19924;-69
2023/01/24 05:47:06;;;;;;;;;;;4.20;99.90;;;;;;5008517;28;19918;-68
2023/01/24 05:49:31;;;;;;;;;;;4.20;99.90;;;;;;5007985;28;19943;-69
2023/01/24 05:51:57;;;;;;;;;;;4.20;99.90;;;;;;5007327;28;19972;-67
2023/01/24 05:54:22;;;;;;;;;;;4.20;99.90;;;;;;5008726;28;20479;-68
2023/01/24 05:56:48;;;;;;;;;;;4.20;99.90;;;;;;5004483;28;19913;-64
2023/01/24 05:59:14;;;;;;;;;;;4.20;99.90;;;;;;5006940;28;19916;-68
2023/01/24 06:01:39;;;;;;;;;;;4.20;99.90;;;;;;5005446;28;19913;-68
2023/01/24 06:04:05;;;;;;;;;;;4.20;99.90;;;;;;5009719;28;19909;-67
2023/01/24 06:06:30;;;;;;;;;;;4.20;99.90;;;;;;5008509;28;19910;-68
2023/01/24 06:08:56;;;;;;;;;;;4.30;99.90;;;;;;5003540;28;19968;-68
2023/01/24 06:11:25;;;;;;;;;;;4.30;99.90;;;;;;5009830;28;19997;-68
2023/01/24 06:13:53;;;;;;;;;;;4.30;99.90;;;;;;5004650;28;20399;-68
2023/01/24 06:16:19;;;;;;;;;;;4.20;99.90;;;;;;5002731;28;20368;-68
2023/01/24 06:18:45;;;;;;;;;;;4.30;99.90;;;;;;5005250;28;19913;-67
2023/01/24 06:21:11;;;;;;;;;;;4.30;99.90;;;;;;5006799;28;20412;-69
2023/01/24 06:23:36;;;;;;;;;;;4.30;99.90;;;;;;5002755;28;20281;-67
2023/01/24 06:26:02;;;;;;;;;;;4.30;99.90;;;;;;5006469;28;19909;-67
2023/01/24 06:28:28;;;;;;;;;;;4.30;99.90;;;;;;5011065;28;19979;-68
2023/01/24 06:31:02;;;;;;;;;;;4.30;99.90;;;;;;5008321;28;20250;-68
2023/01/24 06:33:37;;;;;;;;;;;4.40;99.90;;;;;;5006644;28;19924;-68
2023/01/24 06:36:24;;;;;;;;;;;4.30;99.90;;;;;;5006489;28;20005;-68
2023/01/24 06:38:50;;;;;;;;;;;4.40;99.90;;;;;;5003642;28;19910;-68
2023/01/24 06:41:16;;;;;;;;;;;4.40;99.90;;;;;;5008583;28;19921;-66
2023/01/24 06:43:42;;;;;;;;;;;4.50;99.90;;;;;;5007868;28;20277;-67
2023/01/24 06:46:09;;;;;;;;;;;4.40;99.90;;;;;;5000193;28;19940;-67
2023/01/24 06:48:34;;;;;;;;;;;4.40;99.90;;;;;;5008606;28;19918;-67
2023/01/24 06:51:00;;;;;;;;;;;4.50;99.90;;;;;;5008457;28;19920;-68
2023/01/24 06:53:25;;;;;;;;;;;4.50;99.90;;;;;;5009990;28;19909;-67
2023/01/24 06:55:51;;;;;;;;;;;4.50;99.90;;;;;;5007326;28;19918;-68
2023/01/24 06:58:16;;;;;;;;;;;4.50;99.90;;;;;;5008729;28;20060;-68
2023/01/24 07:00:42;;;;;;;;;;;4.60;99.90;;;;;;5008285;28;19909;-67
2023/01/24 07:03:08;;;;;;;;;;;4.60;99.90;;;;;;5005762;28;20365;-67
2023/01/24 07:05:37;;;;;;;;;;;4.60;99.90;;;;;;5009332;28;20310;-68
2023/01/24 07:08:04;;;;;;;;;;;4.60;99.90;;;;;;5008405;28;19924;-68
2023/01/24 07:10:29;;;;;;;;;;;4.60;99.90;;;;;;5009479;28;20282;-68
2023/01/24 07:12:55;;;;;;;;;;;4.70;99.90;;;;;;5006988;28;19917;-68
2023/01/24 07:15:20;;;;;;;;;;;4.70;99.90;;;;;;5010310;28;19909;-68
2023/01/24 07:17:46;;;;;;;;;;;4.80;99.90;;;;;;5009619;28;20365;-68
2023/01/24 07:20:12;;;;;;;;;;;4.80;99.90;;;;;;5011893;28;19971;-67
2023/01/24 07:22:39;;;;;;;;;;;4.70;99.90;;;;;;5013210;28;20326;-68
2023/01/24 07:25:05;;;;;;;;;;;4.70;99.90;;;;;;5014567;28;20234;-68
2023/01/24 07:27:31;;;;;;;;;;;4.70;99.90;;;;;;5014209;28;19917;-68
2023/01/24 07:29:56;;;;;;;;;;;4.80;99.90;;;;;;5012378;28;19921;-67
2023/01/24 07:32:22;;;;;;;;;;;4.80;99.90;;;;;;5013005;28;19932;-67
2023/01/24 07:34:47;;;;;;;;;;;4.80;99.90;;;;;;5010169;28;19920;-67
2023/01/24 07:37:13;;;;;;;;;;;4.80;99.90;;;;;;5014065;28;20022;-66
2023/01/24 07:39:39;;;;;;;;;;;4.80;99.90;;;;;;5014773;28;19909;-69
2023/01/24 07:42:04;;;;;;;;;;;4.90;99.90;;;;;;5009638;28;20349;-68
2023/01/24 07:44:30;;;;;;;;;;;4.90;99.90;;;;;;5012160;28;19921;-68
2023/01/24 07:46:56;;;;;;;;;;;4.90;99.90;;;;;;5007829;28;20409;-68
2023/01/24 07:49:21;;;;;;;;;;;4.90;99.90;;;;;;5013274;28;19924;-68
2023/01/24 07:51:48;;;;;;;;;;;4.90;99.90;;;;;;5011448;28;19917;-67
2023/01/24 07:54:14;;;;;;;;;;;4.90;99.90;;;;;;5013171;28;20317;-67
2023/01/24 07:56:39;;;;;;;;;;;5.00;99.90;;;;;;5007061;28;19916;-67
2023/01/24 07:59:06;;;;;;;;;;;5.00;99.90;;;;;;5012094;28;19910;-68
2023/01/24 08:01:31;;;;;;;;;;;5.00;99.90;;;;;;5011102;28;19909;-68
2023/01/24 08:03:57;;;;;;;;;;;4.90;99.90;;;;;;5015182;28;19919;-65
2023/01/24 08:06:23;;;;;;;;;;;5.00;99.90;;;;;;5011991;28;19909;-68
2023/01/24 08:08:49;;;;;;;;;;;5.00;99.90;;;;;;5014129;28;19917;-67
2023/01/24 08:11:17;;;;;;;;;;;5.00;99.90;;;;;;5009795;28;19909;-65
2023/01/24 08:13:45;;;;;;;;;;;5.00;99.90;;;;;;5009476;28;20349;-67
2023/01/24 08:16:11;;;;;;;;;;;5.00;99.90;;;;;;5007796;28;20044;-68
2023/01/24 08:18:37;;;;;;;;;;;5.00;99.90;;;;;;5010463;28;20000;-67
2023/01/24 08:21:04;;;;;;;;;;;5.00;99.90;;;;;;5009219;28;19913;-67
2023/01/24 08:23:29;;;;;;;;;;;5.00;99.90;;;;;;5007434;28;19972;-67
2023/01/24 08:25:57;;;;;;;;;;;5.00;99.90;;;;;;5009918;28;19909;-68
2023/01/24 08:28:22;;;;;;;;;;;5.10;99.90;;;;;;5006835;28;19925;-68
2023/01/24 08:30:48;;;;;;;;;;;5.10;99.90;;;;;;5009109;28;19913;-68
2023/01/24 08:33:17;;;;;;;;;;;5.20;99.90;;;;;;5008955;28;19916;-67
2023/01/24 08:35:43;;;;;;;;;;;5.20;99.90;;;;;;5007959;28;19909;-68
2023/01/24 08:38:09;;;;;;;;;;;5.20;99.90;;;;;;5009390;28;19913;-68
2023/01/24 08:40:35;;;;;;;;;;;5.20;99.90;;;;;;5006686;28;19917;-66
2023/01/24 08:43:00;;;;;;;;;;;5.30;99.90;;;;;;5001727;28;19947;-67
2023/01/24 08:45:26;;;;;;;;;;;5.20;99.90;;;;;;5007971;28;19910;-67
2023/01/24 08:47:52;;;;;;;;;;;5.20;99.90;;;;;;5017485;28;19915;-67
2023/01/24 08:50:19;;;;;;;;;;;5.20;99.90;;;;;;5007795;28;19917;-68
2023/01/24 08:52:45;;;;;;;;;;;5.20;99.90;;;;;;5005270;28;19948;-67
2023/01/24 08:55:11;;;;;;;;;;;5.20;99.90;;;;;;5008867;28;19956;-67
2023/01/24 08:57:36;;;;;;;;;;;5.30;99.90;;;;;;5004065;28;19959;-68
2023/01/24 09:00:03;;;;;;;;;;;5.30;99.90;;;;;;5003898;28;19910;-68
2023/01/24 09:02:29;;;;;;;;;;;5.20;99.90;;;;;;5010018;28;20000;-67
2023/01/24 09:04:54;;;;;;;;;;;5.20;99.90;;;;;;5005118;28;20005;-68
2023/01/24 09:07:20;;;;;;;;;;;5.20;99.90;;;;;;5003219;28;19940;-66
2023/01/24 09:09:45;;;;;;;;;;;5.40;99.90;;;;;;4999488;28;19924;-66
2023/01/24 09:12:11;;;;;;;;;;;5.40;99.90;;;;;;5001934;28;19916;-66
2023/01/24 09:14:36;;;;;;;;;;;5.40;99.90;;;;;;5000186;28;20370;-66
2023/01/24 09:17:02;;;;;;;;;;;5.40;99.90;;;;;;5002606;28;19917;-68
2023/01/24 09:19:28;;;;;;;;;;;5.40;99.90;;;;;;5003887;28;19917;-68
2023/01/24 09:21:56;;;;;;;;;;;5.40;99.90;;;;;;4999468;28;19936;-67
2023/01/24 09:24:22;;;;;;;;;;;5.40;99.90;;;;;;5006739;28;19916;-73
2023/01/24 09:26:47;;;;;;;;;;;5.50;99.90;;;;;;5004256;28;20344;-73
2023/01/24 09:29:13;;;;;;;;;;;5.40;99.90;;;;;;5005894;28;19985;-73
2023/01/24 09:31:39;;;;;;;;;;;5.40;99.90;;;;;;5001679;28;20009;-72
2023/01/24 09:34:04;;;;;;;;;;;5.40;99.90;;;;;;5007967;28;20004;-74
2023/01/24 09:36:30;;;;;;;;;;;5.40;99.90;;;;;;5004410;28;19936;-74
2023/01/24 09:38:56;;;;;;;;;;;5.40;99.90;;;;;;5002624;28;19918;-71
2023/01/24 09:41:25;;;;;;;;;;;5.30;99.90;;;;;;5003290;28;19969;-74
2023/01/24 09:43:52;;;;;;;;;;;5.30;99.90;;;;;;4999436;28;20012;-73
2023/01/24 09:46:17;;;;;;;;;;;5.30;99.90;;;;;;5005800;28;19909;-73
2023/01/24 09:48:43;;;;;;;;;;;5.30;99.90;;;;;;5005995;28;20276;-72
2023/01/24 09:51:26;;;;;;;;;;;5.40;99.90;;;;;;5004860;28;20297;-74
2023/01/24 09:53:53;;;;;;;;;;;5.40;99.90;;;;;;5004562;28;19914;-73
2023/01/24 09:56:26;;;;;;;;;;;5.40;99.90;;;;;;5006597;28;19959;-74
2023/01/24 09:59:09;;;;;;;;;;;5.40;99.90;;;;;;5004648;28;20008;-72
2023/01/24 10:01:35;;;;;;;;;;;5.40;99.90;;;;;;5002907;28;19952;-73
2023/01/24 10:04:00;;;;;;;;;;;5.50;99.90;;;;;;4999964;28;20365;-72
2023/01/24 10:06:29;;;;;;;;;;;5.60;99.90;;;;;;5003352;28;19913;-71
2023/01/24 10:08:59;;;;;;;;;;;5.50;99.90;;;;;;5000919;28;20020;-73
2023/01/24 10:11:24;;;;;;;;;;;5.50;99.90;;;;;;5000031;28;19909;-73
2023/01/24 10:13:50;;;;;;;;;;;5.50;99.90;;;;;;4996461;28;19925;-72
2023/01/24 10:16:34;;;;;;;;;;;5.60;99.90;;;;;;5002008;28;19963;-73
2023/01/24 10:19:15;;;;;;;;;;;5.50;99.90;;;;;;4999964;28;20339;-73
2023/01/24 10:21:49;;;;;;;;;;;5.60;99.90;;;;;;4998321;28;19917;-71
2023/01/24 10:24:17;;;;;;;;;;;5.60;99.90;;;;;;5004332;28;20360;-72
2023/01/24 10:26:49;;;;;;;;;;;5.60;99.90;;;;;;5001620;28;19921;-74
2023/01/24 10:29:15;;;;;;;;;;;5.60;99.90;;;;;;5003416;28;19964;-73
2023/01/24 10:31:42;;;;;;;;;;;5.60;99.90;;;;;;5002821;28;19951;-71
2023/01/24 10:34:10;;;;;;;;;;;5.60;99.90;;;;;;5005022;28;20357;-72
2023/01/24 10:36:43;;;;;;;;;;;5.60;99.90;;;;;;5004655;28;20008;-72
2023/01/24 10:39:10;;;;;;;;;;;5.60;99.90;;;;;;4999263;28;19910;-71
2023/01/24 10:41:35;;;;;;;;;;;5.60;99.90;;;;;;5004660;28;19972;-73
2023/01/24 10:44:08;;;;;;;;;;;5.60;99.90;;;;;;5002587;28;19917;-73
2023/01/24 10:46:42;;;;;;;;;;;5.70;99.90;;;;;;5002842;28;19951;-72
2023/01/24 10:49:11;;;;;;;;;;;5.70;99.90;;;;;;5001215;28;19918;-72
2023/01/24 10:51:37;;;;;;;;;;;5.70;99.90;;;;;;5003692;28;20344;-73
2023/01/24 10:54:03;;;;;;;;;;;5.70;99.90;;;;;;5003617;28;19920;-73
2023/01/24 10:56:28;;;;;;;;;;;5.80;99.90;;;;;;5006741;28;20749;-73
2023/01/24 10:58:59;;;;;;;;;;;5.70;99.90;;;;;;5007803;28;19909;-72
2023/01/24 11:01:33;;;;;;;;;;;5.80;99.90;;;;;;5007020;28;20358;-71
2023/01/24 11:03:59;;;;;;;;;;;5.80;99.90;;;;;;5009026;28;20000;-72
2023/01/24 11:06:31;;;;;;;;;;;5.90;99.90;;;;;;5010789;28;20491;-73
2023/01/24 11:09:25;;;;;;;;;;;5.90;99.90;;;;;;5006659;28;19972;-72
2023/01/24 11:11:55;;;;;;;;;;;5.80;99.90;;;;;;5005100;28;19992;-73
2023/01/24 11:14:31;;;;;;;;;;;5.80;99.90;;;;;;5008007;28;19959;-71
2023/01/24 11:16:58;;;;;;;;;;;5.80;99.90;;;;;;5008301;28;19914;-71
2023/01/24 11:19:27;;;;;;;;;;;5.80;99.90;;;;;;5009395;28;20352;-72
2023/01/24 11:21:55;;;;;;;;;;;5.80;99.90;;;;;;5008359;28;20007;-72
2023/01/24 11:24:21;;;;;;;;;;;5.80;99.90;;;;;;5009358;28;19913;-71
2023/01/24 11:27:13;;;;;;;;;;;5.80;99.90;;;;;;5002651;28;19909;-70
2023/01/24 11:29:38;;;;;;;;;;;5.80;99.90;;;;;;5007945;28;19921;-70
2023/01/24 11:32:22;;;;;;;;;;;5.90;99.90;;;;;;5009512;28;20357;-71
2023/01/24 11:34:48;;;;;;;;;;;5.90;99.90;;;;;;5008082;28;19921;-74
2023/01/24 11:37:18;;;;;;;;;;;5.90;99.90;;;;;;5007892;28;19913;-72
2023/01/24 11:39:53;;;;;;;;;;;5.90;99.90;;;;;;5006948;28;19916;-73
2023/01/24 11:42:35;;;;;;;;;;;5.90;99.90;;;;;;5008578;28;20281;-72
2023/01/24 11:45:04;;;;;;;;;;;5.90;99.90;;;;;;5009264;28;19922;-72
2023/01/24 11:47:35;;;;;;;;;;;5.90;99.90;;;;;;5011610;28;19913;-66
2023/01/24 11:50:01;;;;;;;;;;;5.80;99.90;;;;;;5005902;28;19926;-67
2023/01/24 11:52:41;;;;;;;;;;;5.90;99.90;;;;;;5007618;28;20365;-68
2023/01/24 11:55:12;;;;;;;;;;;5.90;99.90;;;;;;5007793;28;19917;-67
2023/01/24 11:57:56;;;;;;;;;;;5.90;99.90;;;;;;5009938;28;19916;-65
2023/01/24 12:00:22;;;;;;;;;;;5.90;99.90;;;;;;5007816;28;19914;-68
2023/01/24 12:02:47;;;;;;;;;;;5.90;99.90;;;;;;5007604;28;20431;-67
2023/01/24 12:05:16;;;;;;;;;;;5.90;99.90;;;;;;5004476;28;20385;-67
2023/01/24 12:07:42;;;;;;;;;;;6.00;99.90;;;;;;5006155;28;19992;-67
2023/01/24 12:10:22;;;;;;;;;;;6.00;99.90;;;;;;5005531;28;20009;-69
2023/01/24 12:12:48;;;;;;;;;;;6.00;99.90;;;;;;5005515;28;20040;-67
2023/01/24 12:15:36;;;;;;;;;;;6.00;99.90;;;;;;5006407;28;19941;-68
2023/01/24 12:18:38;;;;;;;;;;;6.00;99.90;;;;;;4997219;28;19916;-67
2023/01/24 12:21:10;;;;;;;;;;;5.90;99.90;;;;;;4997772;28;19917;-67
2023/01/24 12:23:42;;;;;;;;;;;6.00;99.90;;;;;;5000855;28;19913;-66
2023/01/24 12:26:11;;;;;;;;;;;6.00;99.90;;;;;;4997211;28;19917;-67
2023/01/24 12:29:00;;;;;;;;;;;5.90;99.90;;;;;;5000849;28;19917;-67
2023/01/24 12:31:31;;;;;;;;;;;6.00;99.90;;;;;;4993877;28;20281;-67
2023/01/24 12:34:03;;;;;;;;;;;6.10;99.90;;;;;;5007338;28;19913;-70
2023/01/24 12:36:47;;;;;;;;;;;6.10;99.90;;;;;;5006676;28;19917;-70
2023/01/24 12:39:20;;;;;;;;;;;6.00;99.90;;;;;;5002886;28;19966;-69
2023/01/24 12:41:50;;;;;;;;;;;6.10;99.90;;;;;;5006209;28;19909;-70
2023/01/24 12:44:16;;;;;;;;;;;6.10;99.90;;;;;;5007228;28;19917;-68
2023/01/24 12:46:49;;;;;;;;;;;6.20;99.90;;;;;;5003537;28;19910;-69
2023/01/24 12:49:15;;;;;;;;;;;6.20;99.90;;;;;;5007230;28;19918;-70
2023/01/24 12:51:46;;;;;;;;;;;6.20;99.90;;;;;;5007339;28;19917;-69
2023/01/24 12:54:21;;;;;;;;;;;6.20;99.90;;;;;;5005671;28;19910;-69
2023/01/24 12:57:00;;;;;;;;;;;6.20;99.90;;;;;;4996962;28;20380;-71
2023/01/24 12:59:28;;;;;;;;;;;6.30;99.90;;;;;;5004772;28;20004;-69
2023/01/24 13:01:53;;;;;;;;;;;6.30;99.90;;;;;;5007355;28;20000;-69
2023/01/24 13:04:25;;;;;;;;;;;6.30;99.90;;;;;;5006416;28;20063;-69
2023/01/24 13:06:54;;;;;;;;;;;6.30;99.90;;;;;;5005616;28;19956;-70
2023/01/24 13:09:31;;;;;;;;;;;6.30;99.90;;;;;;5006502;28;19925;-69
2023/01/24 13:11:58;;;;;;;;;;;6.30;99.90;;;;;;4998593;28;20289;-69
2023/01/24 13:14:27;;;;;;;;;;;6.20;99.90;;;;;;5009328;28;19921;-66
2023/01/24 13:16:53;;;;;;;;;;;6.20;99.90;;;;;;5004499;28;20040;-66
2023/01/24 13:19:24;;;;;;;;;;;6.20;99.90;;;;;;5004757;28;20501;-65
2023/01/24 13:21:53;;;;;;;;;;;6.20;99.90;;;;;;5005605;28;19917;-67
2023/01/24 13:24:25;;;;;;;;;;;6.20;99.90;;;;;;5007691;28;20297;-67
2023/01/24 13:27:00;;;;;;;;;;;6.20;99.90;;;;;;5001953;28;19925;-66
2023/01/24 13:29:31;;;;;;;;;;;6.20;99.90;;;;;;5002679;28;19924;-66
2023/01/24 13:32:17;;;;;;;;;;;6.30;99.90;;;;;;5004326;28;19909;-65
2023/01/24 13:34:44;;;;;;;;;;;6.10;99.90;;;;;;5005899;28;19909;-66
2023/01/24 13:37:20;;;;;;;;;;;6.20;99.90;;;;;;5004869;28;19916;-68
2023/01/24 13:39:47;;;;;;;;;;;6.20;99.90;;;;;;5000007;28;19909;-68
2023/01/24 13:42:19;;;;;;;;;;;6.20;99.90;;;;;;5002758;28;20373;-68
2023/01/24 13:44:44;;;;;;;;;;;6.20;99.90;;;;;;5002003;28;19924;-69
2023/01/24 13:47:13;;;;;;;;;;;6.30;99.90;;;;;;5004626;28;19968;-68
2023/01/24 13:49:40;;;;;;;;;;;6.20;99.90;;;;;;5002166;28;19971;-68
2023/01/24 13:52:35;;;;;;;;;;;6.30;99.90;;;;;;5004665;28;19953;-68
2023/01/24 13:55:02;;;;;;;;;;;6.30;99.90;;;;;;4996773;28;20399;-67
2023/01/24 13:57:32;;;;;;;;;;;6.30;99.90;;;;;;5008264;28;19906;-68
2023/01/24 14:00:01;;;;;;;;;;;6.30;99.90;;;;;;5004842;28;19909;-68
2023/01/24 14:02:34;;;;;;;;;;;6.30;99.90;;;;;;5006642;28;19909;-68
2023/01/24 14:04:59;;;;;;;;;;;6.30;99.90;;;;;;5005190;28;19921;-70
2023/01/24 14:07:51;;;;;;;;;;;6.30;99.90;;;;;;5004660;28;19909;-69
2023/01/24 14:10:16;;;;;;;;;;;6.30;99.90;;;;;;5003407;28;19921;-68
2023/01/24 14:12:52;;;;;;;;;;;6.20;99.90;;;;;;5004312;28;20325;-70
2023/01/24 14:15:26;;;;;;;;;;;6.20;99.90;;;;;;5005633;28;19935;-68
2023/01/24 14:17:52;;;;;;;;;;;6.20;99.90;;;;;;5002890;28;20040;-70
2023/01/24 14:20:21;;;;;;;;;;;6.20;99.90;;;;;;5008422;28;19999;-68
2023/01/24 14:22:47;;;;;;;;;;;6.20;99.90;;;;;;4998590;28;19971;-68
2023/01/24 14:25:31;;;;;;;;;;;6.20;99.90;;;;;;5002859;28;19918;-70
2023/01/24 14:28:00;;;;;;;;;;;6.10;99.90;;;;;;5002900;28;19929;-69
2023/01/24 14:30:26;;;;;;;;;;;6.20;99.90;;;;;;5002013;28;19947;-69
2023/01/24 14:32:57;;;;;;;;;;;6.20;99.90;;;;;;5003906;28;19910;-68
2023/01/24 14:35:25;;;;;;;;;;;6.20;99.90;;;;;;5003677;28;20314;-68
2023/01/24 14:37:51;;;;;;;;;;;6.20;99.90;;;;;;5001763;28;19913;-70
2023/01/24 14:40:22;;;;;;;;;;;6.20;99.90;;;;;;5007686;28;19913;-68
2023/01/24 14:43:01;;;;;;;;;;;6.20;99.90;;;;;;5002194;28;19975;-68
2023/01/24 14:45:28;;;;;;;;;;;6.10;99.90;;;;;;5005515;28;20380;-69
2023/01/24 14:47:55;;;;;;;;;;;6.10;99.90;;;;;;5002177;28;19944;-68
2023/01/24 14:50:28;;;;;;;;;;;6.10;99.90;;;;;;5007922;28;20454;-70
2023/01/24 14:52:54;;;;;;;;;;;6.10;99.90;;;;;;5001085;28;19910;-69
2023/01/24 14:55:20;;;;;;;;;;;6.10;99.90;;;;;;5004895;28;19909;-68
2023/01/24 14:57:45;;;;;;;;;;;5.90;99.90;;;;;;5004015;28;19916;-69
2023/01/24 15:00:11;;;;;;;;;;;5.90;99.90;;;;;;5005693;28;19916;-69
2023/01/24 15:02:57;;;;;;;;;;;6.00;99.90;;;;;;5017677;28;19916;-69
2023/01/24 15:05:30;;;;;;;;;;;6.00;99.90;;;;;;5002540;28;20376;-68
2023/01/24 15:07:56;;;;;;;;;;;6.00;99.90;;;;;;5001959;28;19952;-69
2023/01/24 15:10:33;;;;;;;;;;;6.00;99.90;;;;;;5002206;28;19952;-69
2023/01/24 15:13:01;;;;;;;;;;;6.00;99.90;;;;;;5002464;28;19967;-68